createdAt,value
2023-11-21T00:00:02.301Z,5.25
2023-11-21T00:02:29.727Z,5.30
2023-11-21T00:04:57.096Z,5.26
2023-11-21T00:07:24.492Z,5.22
2023-11-21T00:09:52.234Z,5.25
2023-11-21T00:12:19.533Z,5.32
2023-11-21T00:14:46.948Z,5.29
2023-11-21T00:17:14.353Z,5.23
2023-11-21T00:19:41.782Z,5.24
2023-11-21T00:22:10.097Z,5.15
2023-11-21T00:24:37.401Z,5.15
2023-11-21T00:27:04.836Z,5.14
2023-11-21T00:29:32.238Z,5.11
2023-11-21T00:31:59.681Z,5.15
2023-11-21T00:34:27.091Z,5.17
2023-11-21T00:36:55.633Z,5.16
2023-11-21T00:39:22.992Z,5.14
2023-11-21T00:41:50.317Z,5.04
2023-11-21T00:44:17.648Z,5.03
2023-11-21T00:46:45.055Z,5.05
2023-11-21T00:49:12.399Z,5.00
2023-11-21T00:51:39.748Z,5.02
2023-11-21T00:54:07.901Z,4.99
2023-11-21T00:56:35.212Z,5.00
2023-11-21T00:59:02.535Z,5.00
2023-11-21T01:01:29.959Z,5.00
2023-11-21T01:03:57.303Z,5.00
2023-11-21T01:06:24.603Z,4.99
2023-11-21T01:08:51.902Z,5.03
2023-11-21T01:11:19.365Z,5.02
2023-11-21T01:13:46.802Z,5.01
2023-11-21T01:16:14.213Z,5.00
2023-11-21T01:18:41.629Z,4.96
2023-11-21T01:21:10.136Z,4.95
2023-11-21T01:23:37.612Z,4.90
2023-11-21T01:26:04.949Z,4.94
2023-11-21T01:28:32.380Z,4.91
2023-11-21T01:30:59.783Z,4.88
2023-11-21T01:33:27.254Z,4.88
2023-11-21T01:35:56.104Z,4.81
2023-11-21T01:38:23.542Z,4.77
2023-11-21T01:40:50.963Z,4.84
2023-11-21T01:43:22.712Z,4.85
2023-11-21T01:45:50.229Z,4.86
2023-11-21T01:48:17.914Z,4.76
2023-11-21T01:50:46.104Z,4.71
2023-11-21T01:53:14.335Z,4.75
2023-11-21T01:55:43.043Z,4.65
2023-11-21T01:58:10.467Z,4.57
2023-11-21T02:00:39.675Z,4.49
2023-11-21T02:03:08.536Z,4.62
2023-11-21T02:05:36.075Z,4.73
2023-11-21T02:08:04.398Z,4.64
2023-11-21T02:10:32.535Z,4.62
2023-11-21T02:13:01.331Z,4.62
2023-11-21T02:15:30.187Z,4.57
2023-11-21T02:17:59.702Z,4.47
2023-11-21T02:20:27.661Z,4.52
2023-11-21T02:22:59.597Z,4.54
2023-11-21T02:25:30.913Z,4.58
2023-11-21T02:27:59.339Z,4.64
2023-11-21T02:30:26.752Z,4.64
2023-11-21T02:32:54.367Z,4.66
2023-11-21T02:35:26.952Z,4.70
2023-11-21T02:37:54.840Z,4.68
2023-11-21T02:40:22.743Z,4.71
2023-11-21T02:42:53.734Z,4.62
2023-11-21T02:45:22.378Z,4.64
2023-11-21T02:47:54.795Z,4.57
2023-11-21T02:50:24.095Z,4.55
2023-11-21T02:52:52.727Z,4.46
2023-11-21T02:55:21.701Z,4.49
2023-11-21T02:57:49.207Z,4.49
2023-11-21T03:00:17.268Z,4.37
2023-11-21T03:02:46.052Z,4.21
2023-11-21T03:05:13.435Z,4.29
2023-11-21T03:07:41.353Z,4.33
2023-11-21T03:10:13.166Z,4.32
2023-11-21T03:12:41.003Z,4.31
2023-11-21T03:15:08.998Z,4.28
2023-11-21T03:17:36.505Z,4.22
2023-11-21T03:20:05.715Z,4.25
2023-11-21T03:22:35.955Z,4.21
2023-11-21T03:25:04.189Z,4.32
2023-11-21T03:27:31.488Z,4.29
2023-11-21T03:29:58.760Z,4.27
2023-11-21T03:32:26.101Z,4.27
2023-11-21T03:34:58.137Z,4.27
2023-11-21T03:37:29.393Z,4.32
2023-11-21T03:39:58.222Z,4.34
2023-11-21T03:42:28.877Z,4.32
2023-11-21T03:44:56.230Z,4.27
2023-11-21T03:47:23.706Z,4.28
2023-11-21T03:49:51.185Z,4.24
2023-11-21T03:52:18.733Z,4.25
2023-11-21T03:54:46.203Z,4.27
2023-11-21T03:57:13.624Z,4.17
2023-11-21T03:59:42.239Z,4.25
2023-11-21T04:02:09.660Z,4.27
2023-11-21T04:04:37.441Z,4.28
2023-11-21T04:07:05.461Z,4.33
2023-11-21T04:09:32.894Z,4.30
2023-11-21T04:12:00.379Z,4.26
2023-11-21T04:14:27.786Z,4.30
2023-11-21T04:16:55.332Z,4.28
2023-11-21T04:19:23.019Z,4.18
2023-11-21T04:21:50.518Z,4.11
2023-11-21T04:24:17.853Z,4.11
2023-11-21T04:26:45.639Z,4.04
2023-11-21T04:29:13.049Z,4.04
2023-11-21T04:31:40.410Z,4.03
2023-11-21T04:34:07.852Z,4.05
2023-11-21T04:36:36.151Z,4.13
2023-11-21T04:39:03.758Z,4.18
2023-11-21T04:41:32.913Z,4.15
2023-11-21T04:44:01.880Z,4.10
2023-11-21T04:46:29.614Z,4.15
2023-11-21T04:48:56.965Z,4.10
2023-11-21T04:51:24.313Z,4.08
2023-11-21T04:53:51.610Z,4.10
2023-11-21T04:56:18.963Z,4.06
2023-11-21T04:58:46.692Z,4.04
2023-11-21T05:01:14.193Z,4.10
2023-11-21T05:03:42.329Z,4.10
2023-11-21T05:06:12.488Z,4.06
2023-11-21T05:08:39.846Z,4.06
2023-11-21T05:11:08.485Z,4.02
2023-11-21T05:13:36.073Z,4.04
2023-11-21T05:16:05.478Z,4.06
2023-11-21T05:18:32.920Z,4.05
2023-11-21T05:21:00.311Z,4.00
2023-11-21T05:23:27.739Z,3.98
2023-11-21T05:25:55.138Z,3.92
2023-11-21T05:28:22.538Z,3.97
2023-11-21T05:30:53.849Z,4.09
2023-11-21T05:33:26.508Z,4.12
2023-11-21T05:35:53.864Z,4.08
2023-11-21T05:38:23.384Z,3.99
2023-11-21T05:40:51.112Z,3.91
2023-11-21T05:43:19.161Z,3.91
2023-11-21T05:45:46.577Z,3.86
2023-11-21T05:48:13.964Z,3.73
2023-11-21T05:50:41.280Z,3.61
2023-11-21T05:53:10.626Z,3.49
2023-11-21T05:55:38.210Z,3.47
2023-11-21T05:58:05.889Z,3.48
2023-11-21T06:00:33.821Z,3.49
2023-11-21T06:03:01.513Z,3.53
2023-11-21T06:05:28.901Z,3.33
2023-11-21T06:08:00.204Z,3.33
2023-11-21T06:10:28.727Z,3.36
2023-11-21T06:12:56.238Z,3.44
2023-11-21T06:15:24.786Z,3.50
2023-11-21T06:17:56.381Z,3.34
2023-11-21T06:20:24.476Z,3.25
2023-11-21T06:22:52.716Z,3.31
2023-11-21T06:25:20.382Z,3.47
2023-11-21T06:27:48.993Z,3.51
2023-11-21T06:30:16.663Z,3.62
2023-11-21T06:32:47.862Z,3.58
2023-11-21T06:35:17.429Z,3.67
2023-11-21T06:37:49.705Z,3.66
2023-11-21T06:40:20.282Z,3.75
2023-11-21T06:42:48.579Z,3.77
2023-11-21T06:45:19.866Z,3.84
2023-11-21T06:47:47.623Z,3.82
2023-11-21T06:50:15.412Z,3.82
2023-11-21T06:52:45.187Z,3.89
2023-11-21T06:55:12.834Z,3.98
2023-11-21T06:57:40.122Z,3.95
2023-11-21T07:00:11.040Z,3.88
2023-11-21T07:02:44.071Z,3.85
2023-11-21T07:08:23.750Z,3.98
2023-11-21T07:10:54.543Z,4.06
2023-11-21T07:13:25.410Z,3.99
2023-11-21T07:15:58.601Z,4.02
2023-11-21T07:18:25.953Z,4.04
2023-11-21T07:20:53.405Z,4.02
2023-11-21T07:23:20.806Z,4.01
2023-11-21T07:25:48.837Z,4.03
2023-11-21T07:28:16.494Z,4.05
2023-11-21T07:30:44.111Z,4.06
2023-11-21T07:33:11.830Z,4.04
2023-11-21T07:35:39.333Z,3.97
2023-11-21T07:38:06.959Z,3.89
2023-11-21T07:40:34.557Z,4.00
2023-11-21T07:43:01.871Z,4.04
2023-11-21T07:45:29.514Z,4.11
2023-11-21T07:48:01.943Z,4.19
2023-11-21T07:50:29.370Z,4.09
2023-11-21T07:52:56.917Z,4.10
2023-11-21T07:55:51.973Z,4.15
2023-11-21T07:58:44.210Z,4.01
2023-11-21T08:02:32.516Z,4.23
2023-11-21T08:05:00.089Z,4.11
2023-11-21T08:07:27.811Z,4.21
2023-11-21T08:09:55.382Z,4.26
2023-11-21T08:12:22.710Z,4.25
2023-11-21T08:14:50.063Z,4.31
2023-11-21T08:17:18.654Z,4.26
2023-11-21T08:19:50.377Z,4.28
2023-11-21T08:22:19.830Z,4.25
2023-11-21T08:24:48.067Z,4.38
2023-11-21T08:27:17.010Z,4.39
2023-11-21T08:29:44.509Z,4.42
2023-11-21T08:32:11.952Z,4.43
2023-11-21T08:34:41.288Z,4.38
2023-11-21T08:37:08.852Z,4.46
2023-11-21T08:39:45.522Z,4.46
2023-11-21T08:42:14.659Z,4.50
2023-11-21T08:44:42.550Z,4.53
2023-11-21T08:47:10.041Z,4.70
2023-11-21T08:49:37.843Z,4.75
2023-11-21T08:52:20.472Z,4.80
2023-11-21T08:54:57.253Z,4.82
2023-11-21T08:57:33.890Z,4.76
2023-11-21T09:00:01.341Z,4.73
2023-11-21T09:02:28.737Z,4.87
2023-11-21T09:04:56.155Z,4.82
2023-11-21T09:07:26.909Z,4.87
2023-11-21T09:09:54.320Z,4.92
2023-11-21T09:12:28.970Z,4.86
2023-11-21T09:15:19.102Z,4.99
2023-11-21T09:17:50.966Z,4.87
2023-11-21T09:20:18.426Z,4.75
2023-11-21T09:22:49.537Z,4.84
2023-11-21T09:25:17.230Z,4.78
2023-11-21T09:27:44.683Z,4.92
2023-11-21T09:30:12.882Z,5.00
2023-11-21T09:32:41.971Z,4.85
2023-11-21T09:35:10.098Z,4.86
2023-11-21T09:37:39.276Z,4.78
2023-11-21T09:40:13.745Z,4.94
2023-11-21T09:42:45.311Z,4.92
2023-11-21T09:45:29.953Z,4.99
2023-11-21T09:47:57.919Z,5.12
2023-11-21T09:50:25.772Z,5.04
2023-11-21T09:52:59.265Z,5.06
2023-11-21T09:55:30.883Z,5.12
2023-11-21T09:57:59.001Z,5.15
2023-11-21T10:00:26.634Z,5.12
2023-11-21T10:02:56.636Z,5.20
2023-11-21T10:05:27.535Z,5.18
2023-11-21T10:07:58.802Z,5.19
2023-11-21T10:10:26.622Z,5.18
2023-11-21T10:12:56.641Z,5.22
2023-11-21T10:15:24.559Z,5.16
2023-11-21T10:17:54.394Z,5.26
2023-11-21T10:20:22.172Z,5.37
2023-11-21T10:22:50.790Z,5.30
2023-11-21T10:25:21.531Z,5.42
2023-11-21T10:27:51.684Z,5.44
2023-11-21T10:30:19.283Z,5.43
2023-11-21T10:32:47.905Z,5.46
2023-11-21T10:35:18.017Z,5.52
2023-11-21T10:37:45.703Z,5.54
2023-11-21T10:40:18.877Z,5.46
2023-11-21T10:42:46.451Z,5.57
2023-11-21T10:45:16.718Z,5.49
2023-11-21T10:47:45.185Z,5.33
2023-11-21T10:50:13.042Z,5.31
2023-11-21T10:52:42.442Z,5.27
2023-11-21T10:55:23.339Z,5.24
2023-11-21T10:57:52.288Z,5.14
2023-11-21T11:00:22.744Z,5.01
2023-11-21T11:02:52.539Z,5.10
2023-11-21T11:08:28.776Z,5.20
2023-11-21T11:11:00.044Z,5.13
2023-11-21T11:13:27.497Z,5.17
2023-11-21T11:16:08.352Z,5.04
2023-11-21T11:18:35.925Z,5.24
2023-11-21T11:21:30.772Z,5.15
2023-11-21T11:24:12.907Z,5.29
2023-11-21T11:26:52.952Z,5.39
2023-11-21T11:29:32.277Z,5.51
2023-11-21T11:32:11.420Z,5.52
2023-11-21T11:34:43.898Z,5.48
2023-11-21T11:37:16.718Z,5.48
2023-11-21T11:40:09.188Z,5.45
2023-11-21T11:42:36.002Z,5.22
2023-11-21T11:45:05.591Z,5.32
2023-11-21T11:47:47.674Z,5.36
2023-11-21T11:50:35.698Z,5.42
2023-11-21T11:53:16.291Z,5.24
2023-11-21T11:55:43.733Z,5.41
2023-11-21T11:58:11.345Z,5.44
2023-11-21T12:00:41.234Z,5.30
2023-11-21T12:03:09.697Z,5.35
2023-11-21T12:05:39.880Z,5.37
2023-11-21T12:08:08.612Z,5.28
2023-11-21T12:10:37.689Z,5.17
2023-11-21T12:13:11.285Z,5.30
2023-11-21T12:15:40.130Z,5.31
2023-11-21T12:18:41.245Z,5.27
2023-11-21T12:21:11.091Z,5.35
2023-11-21T12:23:38.531Z,5.35
2023-11-21T12:26:06.304Z,5.29
2023-11-21T12:28:35.402Z,5.25
2023-11-21T12:31:15.528Z,5.28
2023-11-21T12:34:03.181Z,5.37
2023-11-21T12:36:33.776Z,5.35
2023-11-21T12:39:01.602Z,5.41
2023-11-21T12:41:33.193Z,5.42
2023-11-21T12:44:13.164Z,5.35
2023-11-21T12:46:48.397Z,5.47
2023-11-21T12:53:00.243Z,5.51
2023-11-21T12:55:31.264Z,5.49
2023-11-21T12:58:07.103Z,5.53
2023-11-21T13:00:38.491Z,5.52
2023-11-21T13:03:07.138Z,5.52
2023-11-21T13:05:36.095Z,5.51
2023-11-21T13:08:04.626Z,5.45
2023-11-21T13:10:32.631Z,5.61
2023-11-21T13:13:06.396Z,5.63
2023-11-21T13:15:44.244Z,5.65
2023-11-21T13:18:27.187Z,5.60
2023-11-21T13:20:56.254Z,5.64
2023-11-21T13:23:45.280Z,5.69
2023-11-21T13:26:14.681Z,5.68
2023-11-21T13:28:49.822Z,5.63
2023-11-21T13:31:27.162Z,5.56
2023-11-21T13:33:58.098Z,5.57
2023-11-21T13:36:57.186Z,5.59
2023-11-21T13:39:25.010Z,5.55
2023-11-21T13:41:56.358Z,5.51
2023-11-21T13:44:36.088Z,5.58
2023-11-21T13:47:03.760Z,5.59
2023-11-21T13:49:36.564Z,5.58
2023-11-21T13:52:09.182Z,5.28
2023-11-21T13:54:36.656Z,5.46
2023-11-21T13:57:07.793Z,5.48
2023-11-21T13:59:35.237Z,5.35
2023-11-21T14:02:17.895Z,5.31
2023-11-21T14:04:56.211Z,5.34
2023-11-21T14:07:37.164Z,5.32
2023-11-21T14:10:06.265Z,5.35
2023-11-21T14:12:38.357Z,5.40
2023-11-21T14:15:10.929Z,5.44
2023-11-21T14:17:41.008Z,5.45
2023-11-21T14:20:15.766Z,5.52
2023-11-21T14:22:43.481Z,5.52
2023-11-21T14:25:12.681Z,5.56
2023-11-21T14:27:40.114Z,5.58
2023-11-21T14:30:08.045Z,5.51
2023-11-21T14:32:36.229Z,5.47
2023-11-21T14:35:04.873Z,5.50
2023-11-21T14:37:32.312Z,5.54
2023-11-21T14:39:59.660Z,5.55
2023-11-21T14:42:30.831Z,5.48
2023-11-21T14:45:04.060Z,5.35
2023-11-21T14:47:31.457Z,5.46
2023-11-21T14:50:01.189Z,5.40
2023-11-21T14:52:36.366Z,5.43
2023-11-21T14:55:22.108Z,5.37
2023-11-21T14:57:52.290Z,5.33
2023-11-21T15:00:53.052Z,5.31
2023-11-21T15:03:46.584Z,5.32
2023-11-21T15:06:20.977Z,5.41
2023-11-21T15:09:09.127Z,5.46
2023-11-21T15:11:38.075Z,5.50
2023-11-21T15:14:10.320Z,5.48
2023-11-21T15:16:43.954Z,5.50
2023-11-21T15:19:13.347Z,5.46
2023-11-21T15:21:40.700Z,5.46
2023-11-21T15:24:08.196Z,5.44
2023-11-21T15:26:35.529Z,5.43
2023-11-21T15:29:02.944Z,5.46
2023-11-21T15:35:32.889Z,5.47
2023-11-21T15:38:00.814Z,5.46
2023-11-21T15:40:28.608Z,5.42
2023-11-21T15:42:56.090Z,5.36
2023-11-21T15:45:26.167Z,5.34
2023-11-21T15:47:58.482Z,5.26
2023-11-21T15:50:29.049Z,5.18
2023-11-21T15:52:58.161Z,5.15
2023-11-21T15:55:26.532Z,5.17
2023-11-21T15:57:53.884Z,5.13
2023-11-21T16:00:23.833Z,5.18
2023-11-21T16:02:51.670Z,5.23
2023-11-21T16:05:19.345Z,5.23
2023-11-21T16:07:47.532Z,5.21
2023-11-21T16:10:17.645Z,5.17
2023-11-21T16:12:44.969Z,5.13
2023-11-21T16:15:13.050Z,5.11
2023-11-21T16:17:40.660Z,5.08
2023-11-21T16:20:10.640Z,5.09
2023-11-21T16:22:38.857Z,5.12
2023-11-21T16:25:11.917Z,5.10
2023-11-21T16:27:39.674Z,5.12
2023-11-21T16:30:10.917Z,5.04
2023-11-21T16:32:38.576Z,5.04
2023-11-21T16:35:06.455Z,5.13
2023-11-21T16:37:33.797Z,5.15
2023-11-21T16:40:01.321Z,5.15
2023-11-21T16:42:30.851Z,5.12
2023-11-21T16:44:58.576Z,5.15
2023-11-21T16:47:28.857Z,5.15
2023-11-21T16:49:57.913Z,5.07
2023-11-21T16:52:25.364Z,5.07
2023-11-21T16:54:52.837Z,5.06
2023-11-21T16:57:20.240Z,5.03
2023-11-21T16:59:51.677Z,5.05
2023-11-21T17:02:20.275Z,5.04
2023-11-21T17:04:50.265Z,5.04
2023-11-21T17:07:18.547Z,5.06
2023-11-21T17:09:45.928Z,5.05
2023-11-21T17:12:13.233Z,5.03
2023-11-21T17:14:43.125Z,4.96
2023-11-21T17:17:11.510Z,5.03
2023-11-21T17:19:40.595Z,5.06
2023-11-21T17:22:09.097Z,4.97
2023-11-21T17:24:37.524Z,5.09
2023-11-21T17:27:05.760Z,5.13
2023-11-21T17:29:33.137Z,5.15
2023-11-21T17:32:00.844Z,5.12
2023-11-21T17:34:29.233Z,5.01
2023-11-21T17:36:56.866Z,5.02
2023-11-21T17:39:24.476Z,4.96
2023-11-21T17:41:51.894Z,4.97
2023-11-21T17:44:19.238Z,5.01
2023-11-21T17:46:46.665Z,4.94
2023-11-21T17:49:14.058Z,4.92
2023-11-21T17:51:42.310Z,4.85
2023-11-21T17:54:09.910Z,4.83
2023-11-21T17:56:37.604Z,4.84
2023-11-21T17:59:05.703Z,4.87
2023-11-21T18:01:40.001Z,4.91
2023-11-21T18:04:08.327Z,4.85
2023-11-21T18:06:35.759Z,4.79
2023-11-21T18:09:04.741Z,4.77
2023-11-21T18:11:32.154Z,4.85
2023-11-21T18:13:59.556Z,4.87
2023-11-21T18:16:27.320Z,4.98
2023-11-21T18:18:54.829Z,4.97
2023-11-21T18:21:22.163Z,4.86
2023-11-21T18:23:49.622Z,4.81
2023-11-21T18:26:20.164Z,4.82
2023-11-21T18:28:47.772Z,4.80
2023-11-21T18:31:16.293Z,4.89
2023-11-21T18:33:44.835Z,4.82
2023-11-21T18:36:12.235Z,4.83
2023-11-21T18:38:39.900Z,4.91
2023-11-21T18:41:07.367Z,4.97
2023-11-21T18:43:34.688Z,4.79
2023-11-21T18:46:03.721Z,4.78
2023-11-21T18:48:31.287Z,4.75
2023-11-21T18:50:58.638Z,4.84
2023-11-21T18:53:26.776Z,4.94
2023-11-21T18:55:54.173Z,4.99
2023-11-21T18:58:21.524Z,5.00
2023-11-21T19:00:48.858Z,5.05
2023-11-21T19:03:16.280Z,4.98
2023-11-21T19:05:43.744Z,4.97
2023-11-21T19:08:11.138Z,4.95
2023-11-21T19:10:38.578Z,4.97
2023-11-21T19:13:23.142Z,5.00
2023-11-21T19:15:50.452Z,5.08
2023-11-21T19:18:17.852Z,5.10
2023-11-21T19:20:45.442Z,5.06
2023-11-21T19:23:12.829Z,5.13
2023-11-21T19:25:40.261Z,5.14
2023-11-21T19:28:07.593Z,5.15
2023-11-21T19:30:36.101Z,5.09
2023-11-21T19:33:06.901Z,5.16
2023-11-21T19:35:40.341Z,5.06
2023-11-21T19:38:07.747Z,5.12
2023-11-21T19:40:35.580Z,5.08
2023-11-21T19:43:03.771Z,5.15
2023-11-21T19:45:32.502Z,5.16
2023-11-21T19:47:59.965Z,5.15
2023-11-21T19:50:27.539Z,5.10
2023-11-21T19:52:54.873Z,5.13
2023-11-21T19:55:22.178Z,5.10
2023-11-21T19:57:49.892Z,5.09
2023-11-21T20:00:17.773Z,5.15
2023-11-21T20:02:45.397Z,5.17
2023-11-21T20:05:16.402Z,5.15
2023-11-21T20:07:44.277Z,5.18
2023-11-21T20:10:11.902Z,5.14
2023-11-21T20:12:39.254Z,5.19
2023-11-21T20:15:07.476Z,5.17
2023-11-21T20:17:34.869Z,5.19
2023-11-21T20:20:02.376Z,5.19
2023-11-21T20:22:29.865Z,5.19
2023-11-21T20:24:58.177Z,5.17
2023-11-21T20:27:25.489Z,5.22
2023-11-21T20:29:52.830Z,5.24
2023-11-21T20:32:25.306Z,5.25
2023-11-21T20:34:54.261Z,5.26
2023-11-21T20:37:21.670Z,5.27
2023-11-21T20:39:50.044Z,5.18
2023-11-21T20:42:17.500Z,5.01
2023-11-21T20:44:44.831Z,4.90
2023-11-21T20:47:12.845Z,4.80
2023-11-21T20:49:48.069Z,4.80
2023-11-21T20:52:16.579Z,4.71
2023-11-21T20:54:45.627Z,4.70
2023-11-21T20:57:13.565Z,4.71
2023-11-21T20:59:40.894Z,4.73
2023-11-21T21:02:08.304Z,4.71
2023-11-21T21:04:35.683Z,4.69
2023-11-21T21:07:03.630Z,4.71
2023-11-21T21:09:31.120Z,4.71
2023-11-21T21:11:58.698Z,4.74
2023-11-21T21:14:30.182Z,4.68
2023-11-21T21:16:58.367Z,4.70
2023-11-21T21:19:29.042Z,4.66
2023-11-21T21:21:57.341Z,4.71
2023-11-21T21:24:24.716Z,4.72
2023-11-21T21:26:52.016Z,4.71
2023-11-21T21:29:21.626Z,4.70
2023-11-21T21:31:49.150Z,4.70
2023-11-21T21:34:18.075Z,4.69
2023-11-21T21:36:46.598Z,4.71
2023-11-21T21:39:15.034Z,4.76
2023-11-21T21:41:42.419Z,4.75
2023-11-21T21:44:09.898Z,4.80
2023-11-21T21:46:37.696Z,4.79
2023-11-21T21:49:05.441Z,4.82
2023-11-21T21:51:33.663Z,4.89
2023-11-21T21:54:01.032Z,4.90
2023-11-21T21:56:28.527Z,4.92
2023-11-21T21:58:58.091Z,4.95
2023-11-21T22:01:29.954Z,4.91
2023-11-21T22:03:57.485Z,4.91
2023-11-21T22:06:24.850Z,4.94
2023-11-21T22:08:52.200Z,4.98
2023-11-21T22:11:19.630Z,4.96
2023-11-21T22:13:47.037Z,4.89
2023-11-21T22:16:16.662Z,4.79
2023-11-21T22:18:44.356Z,4.86
2023-11-21T22:21:19.074Z,4.88
2023-11-21T22:23:46.395Z,4.90
2023-11-21T22:26:17.077Z,4.89
2023-11-21T22:28:44.444Z,4.92
2023-11-21T22:31:11.793Z,4.94
2023-11-21T22:33:39.714Z,5.00
2023-11-21T22:36:07.318Z,5.05
2023-11-21T22:38:34.742Z,5.06
2023-11-21T22:41:04.019Z,5.10
2023-11-21T22:43:32.301Z,5.12
2023-11-21T22:45:59.802Z,5.13
2023-11-21T22:48:28.308Z,5.14
2023-11-21T22:50:55.794Z,5.20
2023-11-21T22:53:23.217Z,5.25
2023-11-21T22:55:50.582Z,5.26
2023-11-21T22:58:18.010Z,5.26
2023-11-21T23:00:46.857Z,5.28
2023-11-21T23:03:14.506Z,5.28
2023-11-21T23:05:42.060Z,5.31
2023-11-21T23:08:10.400Z,5.30
2023-11-21T23:10:40.399Z,5.29
2023-11-21T23:13:09.477Z,5.35
2023-11-21T23:15:36.853Z,5.38
2023-11-21T23:18:06.300Z,5.37
2023-11-21T23:20:33.714Z,5.39
2023-11-21T23:23:01.038Z,5.38
2023-11-21T23:25:28.308Z,5.38
2023-11-21T23:27:55.696Z,5.39
2023-11-21T23:30:24.762Z,5.42
2023-11-21T23:32:52.167Z,5.46
2023-11-21T23:35:19.621Z,5.47
2023-11-21T23:37:46.998Z,5.52
2023-11-21T23:40:14.927Z,5.52
2023-11-21T23:42:42.262Z,5.55
2023-11-21T23:45:10.108Z,5.56
2023-11-21T23:47:37.499Z,5.56
2023-11-21T23:50:05.618Z,5.60
2023-11-21T23:52:33.027Z,5.55
2023-11-21T23:55:00.400Z,5.60
2023-11-21T23:57:27.776Z,5.63
2023-11-21T23:59:55.145Z,5.65
